sensor_id;sensor_type;location;lat;lon;timestamp;pressure;altitude;pressure_sealevel;temperature;humidity
59419;BME280;45224;50.904;6.038;2023-06-14T00:00:21;99594.59;;;21.13;39.16
59419;BME280;45224;50.904;6.038;2023-06-14T00:01:52;99594.44;;;21.16;39.18
59419;BME280;45224;50.904;6.038;2023-06-14T00:03:22;99593.75;;;21.12;39.55
59419;BME280;45224;50.904;6.038;2023-06-14T00:04:54;99592.16;;;21.08;39.53
59419;BME280;45224;50.904;6.038;2023-06-14T00:06:25;99582.66;;;21.06;39.45
59419;BME280;45224;50.904;6.038;2023-06-14T00:07:55;99593.31;;;21.03;39.61
59419;BME280;45224;50.904;6.038;2023-06-14T00:09:25;99586.56;;;20.97;39.91
59419;BME280;45224;50.904;6.038;2023-06-14T00:10:56;99584.91;;;20.94;39.91
59419;BME280;45224;50.904;6.038;2023-06-14T00:12:26;99590.47;;;20.88;40.17
59419;BME280;45224;50.904;6.038;2023-06-14T00:13:57;99585.34;;;20.85;40.11
59419;BME280;45224;50.904;6.038;2023-06-14T00:15:27;99580.31;;;20.81;40.11
59419;BME280;45224;50.904;6.038;2023-06-14T00:16:58;99584.91;;;20.75;40.28
59419;BME280;45224;50.904;6.038;2023-06-14T00:18:29;99578.09;;;20.71;40.67
59419;BME280;45224;50.904;6.038;2023-06-14T00:19:59;99579.09;;;20.69;40.85
59419;BME280;45224;50.904;6.038;2023-06-14T00:21:30;99593.28;;;20.65;40.65
59419;BME280;45224;50.904;6.038;2023-06-14T00:23:00;99593.38;;;20.61;40.82
59419;BME280;45224;50.904;6.038;2023-06-14T00:24:31;99588.41;;;20.55;40.75
59419;BME280;45224;50.904;6.038;2023-06-14T00:26:01;99583.28;;;20.52;41.11
59419;BME280;45224;50.904;6.038;2023-06-14T00:27:32;99588.66;;;20.49;41.21
59419;BME280;45224;50.904;6.038;2023-06-14T00:29:02;99588.81;;;20.46;41.27
59419;BME280;45224;50.904;6.038;2023-06-14T00:30:32;99587.25;;;20.42;41.12
59419;BME280;45224;50.904;6.038;2023-06-14T00:32:03;99582.19;;;20.37;41.44
59419;BME280;45224;50.904;6.038;2023-06-14T00:33:33;99582.25;;;20.36;41.49
59419;BME280;45224;50.904;6.038;2023-06-14T00:35:04;99591.19;;;20.32;41.47
59419;BME280;45224;50.904;6.038;2023-06-14T00:36:34;99589.53;;;20.29;41.68
59419;BME280;45224;50.904;6.038;2023-06-14T00:38:05;99586.19;;;20.25;41.48
59419;BME280;45224;50.904;6.038;2023-06-14T00:39:35;99586.34;;;20.22;41.90
59419;BME280;45224;50.904;6.038;2023-06-14T00:41:05;99587.25;;;20.21;41.88
59419;BME280;45224;50.904;6.038;2023-06-14T00:42:36;99587.38;;;20.18;42.04
59419;BME280;45224;50.904;6.038;2023-06-14T00:44:06;99580.50;;;20.16;42.06
59419;BME280;45224;50.904;6.038;2023-06-14T00:45:37;99580.56;;;20.14;41.92
59419;BME280;45224;50.904;6.038;2023-06-14T00:47:07;99581.47;;;20.13;41.92
59419;BME280;45224;50.904;6.038;2023-06-14T00:48:38;99592.09;;;20.10;42.23
59419;BME280;45224;50.904;6.038;2023-06-14T00:50:10;99582.59;;;20.08;42.12
59419;BME280;45224;50.904;6.038;2023-06-14T00:51:41;99588.69;;;20.08;42.37
59419;BME280;45224;50.904;6.038;2023-06-14T00:53:12;99587.91;;;20.06;42.10
59419;BME280;45224;50.904;6.038;2023-06-14T00:54:45;99585.28;;;20.06;41.18
59419;BME280;45224;50.904;6.038;2023-06-14T00:56:16;99592.28;;;20.05;42.13
59419;BME280;45224;50.904;6.038;2023-06-14T00:57:46;99583.56;;;20.05;42.27
59419;BME280;45224;50.904;6.038;2023-06-14T00:59:17;99583.69;;;20.02;42.12
59419;BME280;45224;50.904;6.038;2023-06-14T01:00:47;99584.69;;;19.99;42.18
59419;BME280;45224;50.904;6.038;2023-06-14T01:02:18;99585.53;;;20.00;41.97
59419;BME280;45224;50.904;6.038;2023-06-14T01:03:49;99589.06;;;19.99;42.23
59419;BME280;45224;50.904;6.038;2023-06-14T01:05:19;99586.50;;;19.97;42.22
59419;BME280;45224;50.904;6.038;2023-06-14T01:08:36;99595.44;;;19.93;42.45
59419;BME280;45224;50.904;6.038;2023-06-14T01:10:20;99593.78;;;19.91;42.52
59419;BME280;45224;50.904;6.038;2023-06-14T01:13:31;99591.34;;;19.86;42.48
59419;BME280;45224;50.904;6.038;2023-06-14T01:15:02;99592.34;;;19.83;42.54
59419;BME280;45224;50.904;6.038;2023-06-14T01:16:33;99596.78;;;19.81;42.61
59419;BME280;45224;50.904;6.038;2023-06-14T01:18:06;99593.44;;;19.78;42.65
59419;BME280;45224;50.904;6.038;2023-06-14T01:19:38;99594.38;;;19.77;42.46
59419;BME280;45224;50.904;6.038;2023-06-14T01:21:22;99586.53;;;19.75;42.66
59419;BME280;45224;50.904;6.038;2023-06-14T01:22:53;99591.91;;;19.72;43.01
59419;BME280;45224;50.904;6.038;2023-06-14T01:24:24;99590.19;;;19.71;42.84
59419;BME280;45224;50.904;6.038;2023-06-14T01:25:56;99590.31;;;19.68;43.04
59419;BME280;45224;50.904;6.038;2023-06-14T01:27:26;99593.00;;;19.66;43.29
59419;BME280;45224;50.904;6.038;2023-06-14T01:28:59;99588.75;;;19.64;43.32
59419;BME280;45224;50.904;6.038;2023-06-14T01:30:30;99593.19;;;19.62;43.24
59419;BME280;45224;50.904;6.038;2023-06-14T01:32:03;99594.13;;;19.61;43.39
59419;BME280;45224;50.904;6.038;2023-06-14T01:33:34;99591.72;;;19.55;43.23
59419;BME280;45224;50.904;6.038;2023-06-14T01:35:06;99593.38;;;19.35;43.77
59419;BME280;45224;50.904;6.038;2023-06-14T01:36:36;99597.56;;;19.17;44.17
59419;BME280;45224;50.904;6.038;2023-06-14T01:38:09;99599.09;;;19.23;43.66
59419;BME280;45224;50.904;6.038;2023-06-14T01:39:39;99593.25;;;19.16;44.19
59419;BME280;45224;50.904;6.038;2023-06-14T01:41:11;99591.41;;;19.18;43.82
59419;BME280;45224;50.904;6.038;2023-06-14T01:42:41;99594.78;;;19.22;43.67
59419;BME280;45224;50.904;6.038;2023-06-14T01:44:13;99591.78;;;19.31;43.27
59419;BME280;45224;50.904;6.038;2023-06-14T01:45:46;99586.41;;;19.34;43.59
59419;BME280;45224;50.904;6.038;2023-06-14T01:47:17;99599.09;;;19.23;43.99
59419;BME280;45224;50.904;6.038;2023-06-14T01:48:47;99595.25;;;18.86;44.92
59419;BME280;45224;50.904;6.038;2023-06-14T01:50:19;99609.56;;;18.75;45.37
59419;BME280;45224;50.904;6.038;2023-06-14T01:51:49;99606.16;;;18.73;45.67
59419;BME280;45224;50.904;6.038;2023-06-14T01:53:20;99594.81;;;18.73;45.39
59419;BME280;45224;50.904;6.038;2023-06-14T01:54:50;99601.91;;;18.46;45.95
59419;BME280;45224;50.904;6.038;2023-06-14T01:56:21;99595.19;;;18.38;46.01
59419;BME280;45224;50.904;6.038;2023-06-14T01:57:53;99596.56;;;18.49;45.84
59419;BME280;45224;50.904;6.038;2023-06-14T01:59:23;99596.84;;;18.41;45.85
59419;BME280;45224;50.904;6.038;2023-06-14T02:00:54;99597.25;;;18.54;45.41
59419;BME280;45224;50.904;6.038;2023-06-14T02:02:25;99591.78;;;18.60;45.37
59419;BME280;45224;50.904;6.038;2023-06-14T02:03:57;99594.19;;;18.66;45.11
59419;BME280;45224;50.904;6.038;2023-06-14T02:05:27;99587.84;;;18.73;45.24
59419;BME280;45224;50.904;6.038;2023-06-14T02:06:58;99592.03;;;18.77;44.80
59419;BME280;45224;50.904;6.038;2023-06-14T02:08:28;99598.78;;;18.85;44.53
59419;BME280;45224;50.904;6.038;2023-06-14T02:09:59;99593.44;;;18.88;44.56
59419;BME280;45224;50.904;6.038;2023-06-14T02:11:29;99589.91;;;18.89;44.59
59419;BME280;45224;50.904;6.038;2023-06-14T02:13:00;99591.66;;;18.88;44.40
59419;BME280;45224;50.904;6.038;2023-06-14T02:14:31;99597.88;;;18.86;44.30
59419;BME280;45224;50.904;6.038;2023-06-14T02:16:01;99596.97;;;18.87;44.35
59419;BME280;45224;50.904;6.038;2023-06-14T02:17:32;99604.03;;;18.59;45.12
59419;BME280;45224;50.904;6.038;2023-06-14T02:19:03;99600.09;;;18.71;44.75
59419;BME280;45224;50.904;6.038;2023-06-14T02:20:34;99612.03;;;18.80;44.68
59419;BME280;45224;50.904;6.038;2023-06-14T02:22:04;99600.66;;;18.79;44.59
59419;BME280;45224;50.904;6.038;2023-06-14T02:23:35;99603.25;;;18.81;44.41
59419;BME280;45224;50.904;6.038;2023-06-14T02:25:05;99605.91;;;18.79;44.63
59419;BME280;45224;50.904;6.038;2023-06-14T02:26:37;99604.03;;;18.85;44.45
59419;BME280;45224;50.904;6.038;2023-06-14T02:28:13;99602.22;;;18.87;44.15
59419;BME280;45224;50.904;6.038;2023-06-14T02:29:43;99603.78;;;18.91;44.02
59419;BME280;45224;50.904;6.038;2023-06-14T02:31:14;99604.66;;;18.91;44.07
59419;BME280;45224;50.904;6.038;2023-06-14T02:32:44;99602.09;;;18.90;44.28
59419;BME280;45224;50.904;6.038;2023-06-14T02:34:16;99600.53;;;18.84;44.47
59419;BME280;45224;50.904;6.038;2023-06-14T02:35:48;99607.75;;;18.77;44.52
59419;BME280;45224;50.904;6.038;2023-06-14T02:37:18;99603.09;;;18.62;44.97
59419;BME280;45224;50.904;6.038;2023-06-14T02:38:50;99605.81;;;18.59;44.92
59419;BME280;45224;50.904;6.038;2023-06-14T02:40:20;99610.13;;;18.60;44.98
59419;BME280;45224;50.904;6.038;2023-06-14T02:41:51;99610.22;;;18.57;44.97
59419;BME280;45224;50.904;6.038;2023-06-14T02:43:21;99603.19;;;18.59;44.64
59419;BME280;45224;50.904;6.038;2023-06-14T02:44:51;99602.31;;;18.58;44.72
59419;BME280;45224;50.904;6.038;2023-06-14T02:46:22;99603.09;;;18.62;44.58
59419;BME280;45224;50.904;6.038;2023-06-14T02:47:53;99597.94;;;18.59;44.85
59419;BME280;45224;50.904;6.038;2023-06-14T02:49:26;99600.56;;;18.59;44.69
59419;BME280;45224;50.904;6.038;2023-06-14T02:50:56;99606.69;;;18.58;44.83
59419;BME280;45224;50.904;6.038;2023-06-14T02:52:27;99600.78;;;18.53;44.83
59419;BME280;45224;50.904;6.038;2023-06-14T02:53:57;99601.78;;;18.49;44.97
59419;BME280;45224;50.904;6.038;2023-06-14T02:55:27;99603.72;;;18.43;45.11
59419;BME280;45224;50.904;6.038;2023-06-14T02:56:58;99612.56;;;18.41;44.88
59419;BME280;45224;50.904;6.038;2023-06-14T02:58:28;99607.25;;;18.42;44.77
59419;BME280;45224;50.904;6.038;2023-06-14T02:59:59;99611.53;;;18.45;44.86
59419;BME280;45224;50.904;6.038;2023-06-14T03:01:30;99617.59;;;18.46;44.86
59419;BME280;45224;50.904;6.038;2023-06-14T03:03:06;99619.09;;;18.28;45.40
59419;BME280;45224;50.904;6.038;2023-06-14T03:04:44;99619.31;;;18.21;45.57
59419;BME280;45224;50.904;6.038;2023-06-14T03:06:19;99619.34;;;18.20;45.32
59419;BME280;45224;50.904;6.038;2023-06-14T03:07:54;99629.78;;;18.21;45.37
59419;BME280;45224;50.904;6.038;2023-06-14T03:09:24;99633.84;;;18.30;45.03
59419;BME280;45224;50.904;6.038;2023-06-14T03:10:55;99624.03;;;18.37;44.93
59419;BME280;45224;50.904;6.038;2023-06-14T03:12:27;99628.41;;;18.36;45.29
59419;BME280;45224;50.904;6.038;2023-06-14T03:13:58;99630.97;;;18.38;45.10
59419;BME280;45224;50.904;6.038;2023-06-14T03:15:30;99639.69;;;18.38;45.19
59419;BME280;45224;50.904;6.038;2023-06-14T03:17:02;99627.44;;;18.39;45.42
59419;BME280;45224;50.904;6.038;2023-06-14T03:18:34;99630.94;;;18.39;45.27
59419;BME280;45224;50.904;6.038;2023-06-14T03:20:06;99637.91;;;18.39;45.49
59419;BME280;45224;50.904;6.038;2023-06-14T03:21:38;99636.22;;;18.38;45.57
59419;BME280;45224;50.904;6.038;2023-06-14T03:23:14;99635.34;;;18.37;45.47
59419;BME280;45224;50.904;6.038;2023-06-14T03:24:44;99629.31;;;18.35;45.53
59419;BME280;45224;50.904;6.038;2023-06-14T03:26:18;99636.31;;;18.35;45.54
59419;BME280;45224;50.904;6.038;2023-06-14T03:27:50;99625.31;;;18.25;45.67
59419;BME280;45224;50.904;6.038;2023-06-14T03:29:22;99624.34;;;18.28;45.78
59419;BME280;45224;50.904;6.038;2023-06-14T03:30:52;99627.09;;;18.23;45.66
59419;BME280;45224;50.904;6.038;2023-06-14T03:32:23;99634.25;;;18.18;45.85
59419;BME280;45224;50.904;6.038;2023-06-14T03:33:53;99629.78;;;18.21;45.65
59419;BME280;45224;50.904;6.038;2023-06-14T03:35:24;99633.31;;;18.20;45.61
59419;BME280;45224;50.904;6.038;2023-06-14T03:36:55;99638.59;;;18.19;45.72
59419;BME280;45224;50.904;6.038;2023-06-14T03:38:26;99638.69;;;18.16;45.89
59419;BME280;45224;50.904;6.038;2023-06-14T03:39:56;99635.06;;;18.20;45.70
59419;BME280;45224;50.904;6.038;2023-06-14T03:41:29;99635.88;;;18.22;45.79
59419;BME280;45224;50.904;6.038;2023-06-14T03:42:59;99640.19;;;18.23;45.64
59419;BME280;45224;50.904;6.038;2023-06-14T03:44:30;99641.09;;;18.22;45.77
59419;BME280;45224;50.904;6.038;2023-06-14T03:46:00;99635.06;;;18.20;46.00
59419;BME280;45224;50.904;6.038;2023-06-14T03:47:33;99644.06;;;18.11;46.12
59419;BME280;45224;50.904;6.038;2023-06-14T03:49:03;99640.63;;;18.11;46.24
59419;BME280;45224;50.904;6.038;2023-06-14T03:50:34;99641.38;;;18.14;46.04
59419;BME280;45224;50.904;6.038;2023-06-14T03:52:04;99647.34;;;18.18;46.28
59419;BME280;45224;50.904;6.038;2023-06-14T03:53:36;99644.78;;;18.16;46.39
59419;BME280;45224;50.904;6.038;2023-06-14T03:55:07;99645.59;;;18.18;46.28
59419;BME280;45224;50.904;6.038;2023-06-14T03:56:38;99643.03;;;18.17;46.57
59419;BME280;45224;50.904;6.038;2023-06-14T03:58:12;99649.06;;;18.19;46.07
59419;BME280;45224;50.904;6.038;2023-06-14T03:59:43;99650.75;;;18.20;46.35
59419;BME280;45224;50.904;6.038;2023-06-14T04:01:14;99645.50;;;18.20;46.28
59419;BME280;45224;50.904;6.038;2023-06-14T04:02:44;99646.34;;;18.22;46.47
59419;BME280;45224;50.904;6.038;2023-06-14T04:04:15;99642.81;;;18.23;46.50
59419;BME280;45224;50.904;6.038;2023-06-14T04:05:48;99645.41;;;18.23;46.94
59419;BME280;45224;50.904;6.038;2023-06-14T04:07:21;99648.03;;;18.23;46.53
59419;BME280;45224;50.904;6.038;2023-06-14T04:08:51;99644.53;;;18.24;46.54
59419;BME280;45224;50.904;6.038;2023-06-14T04:10:22;99646.25;;;18.25;46.68
59419;BME280;45224;50.904;6.038;2023-06-14T04:11:52;99655.78;;;18.26;46.82
59419;BME280;45224;50.904;6.038;2023-06-14T04:13:23;99645.38;;;18.24;46.82
59419;BME280;45224;50.904;6.038;2023-06-14T04:14:53;99647.94;;;18.26;46.68
59419;BME280;45224;50.904;6.038;2023-06-14T04:16:24;99649.81;;;18.22;46.51
59419;BME280;45224;50.904;6.038;2023-06-14T04:17:54;99654.03;;;18.27;47.20
59419;BME280;45224;50.904;6.038;2023-06-14T04:19:28;99660.16;;;18.25;47.03
59419;BME280;45224;50.904;6.038;2023-06-14T04:20:58;99661.06;;;18.24;46.86
59419;BME280;45224;50.904;6.038;2023-06-14T04:22:29;99660.22;;;18.24;46.74
59419;BME280;45224;50.904;6.038;2023-06-14T04:24:02;99655.19;;;18.18;47.11
59419;BME280;45224;50.904;6.038;2023-06-14T04:25:34;99663.19;;;18.13;47.39
59419;BME280;45224;50.904;6.038;2023-06-14T04:27:05;99659.88;;;18.08;47.68
59419;BME280;45224;50.904;6.038;2023-06-14T04:28:37;99656.25;;;18.12;47.35
59419;BME280;45224;50.904;6.038;2023-06-14T04:30:11;99663.34;;;18.09;47.64
59419;BME280;45224;50.904;6.038;2023-06-14T04:31:47;99661.78;;;18.03;47.60
59419;BME280;45224;50.904;6.038;2023-06-14T04:33:18;99666.19;;;18.02;47.83
59419;BME280;45224;50.904;6.038;2023-06-14T04:34:48;99658.47;;;17.98;47.85
59419;BME280;45224;50.904;6.038;2023-06-14T04:36:19;99664.91;;;17.86;48.14
59419;BME280;45224;50.904;6.038;2023-06-14T04:37:51;99661.41;;;17.87;48.19
59419;BME280;45224;50.904;6.038;2023-06-14T04:39:23;99667.78;;;17.78;48.29
59419;BME280;45224;50.904;6.038;2023-06-14T04:40:54;99664.06;;;17.85;48.00
59419;BME280;45224;50.904;6.038;2023-06-14T04:42:27;99670.13;;;17.86;48.09
59419;BME280;45224;50.904;6.038;2023-06-14T04:44:02;99669.38;;;17.82;48.34
59419;BME280;45224;50.904;6.038;2023-06-14T04:45:37;99675.22;;;17.92;47.94
59419;BME280;45224;50.904;6.038;2023-06-14T04:47:10;99672.72;;;17.87;48.28
59419;BME280;45224;50.904;6.038;2023-06-14T04:48:42;99674.63;;;17.82;48.65
59419;BME280;45224;50.904;6.038;2023-06-14T04:50:14;99678.91;;;17.85;48.70
59419;BME280;45224;50.904;6.038;2023-06-14T04:51:45;99679.53;;;17.93;48.65
59419;BME280;45224;50.904;6.038;2023-06-14T04:53:17;99675.06;;;17.97;48.30
59419;BME280;45224;50.904;6.038;2023-06-14T04:54:50;99671.31;;;18.05;47.78
59419;BME280;45224;50.904;6.038;2023-06-14T04:56:23;99680.84;;;18.06;47.62
59419;BME280;45224;50.904;6.038;2023-06-14T04:57:55;99671.41;;;18.02;48.05
59419;BME280;45224;50.904;6.038;2023-06-14T04:59:25;99682.84;;;17.98;48.50
59419;BME280;45224;50.904;6.038;2023-06-14T05:00:56;99678.22;;;18.06;48.15
59419;BME280;45224;50.904;6.038;2023-06-14T05:02:26;99677.44;;;18.04;48.02
59419;BME280;45224;50.904;6.038;2023-06-14T05:03:58;99678.13;;;18.10;47.76
59419;BME280;45224;50.904;6.038;2023-06-14T05:05:29;99677.09;;;18.15;47.44
59419;BME280;45224;50.904;6.038;2023-06-14T05:06:59;99680.47;;;18.19;47.63
59419;BME280;45224;50.904;6.038;2023-06-14T05:08:31;99683.56;;;18.30;47.10
59419;BME280;45224;50.904;6.038;2023-06-14T05:10:01;99683.56;;;18.30;47.27
59419;BME280;45224;50.904;6.038;2023-06-14T05:11:32;99686.50;;;18.21;47.47
59419;BME280;45224;50.904;6.038;2023-06-14T05:13:03;99688.22;;;18.22;47.77
59419;BME280;45224;50.904;6.038;2023-06-14T05:14:34;99682.78;;;18.28;47.43
59419;BME280;45224;50.904;6.038;2023-06-14T05:16:05;99683.72;;;18.25;48.03
59419;BME280;45224;50.904;6.038;2023-06-14T05:17:36;99682.66;;;18.31;47.85
59419;BME280;45224;50.904;6.038;2023-06-14T05:19:07;99682.66;;;18.31;48.09
59419;BME280;45224;50.904;6.038;2023-06-14T05:20:38;99688.56;;;18.38;47.92
59419;BME280;45224;50.904;6.038;2023-06-14T05:22:08;99680.75;;;18.36;47.67
59419;BME280;45224;50.904;6.038;2023-06-14T05:23:39;99682.34;;;18.40;47.94
59419;BME280;45224;50.904;6.038;2023-06-14T05:25:10;99683.75;;;18.51;47.83
59419;BME280;45224;50.904;6.038;2023-06-14T05:26:40;99685.44;;;18.52;48.07
59419;BME280;45224;50.904;6.038;2023-06-14T05:28:11;99688.81;;;18.55;48.48
59419;BME280;45224;50.904;6.038;2023-06-14T05:29:41;99685.34;;;18.55;48.10
59419;BME280;45224;50.904;6.038;2023-06-14T05:31:12;99682.94;;;18.49;48.22
59419;BME280;45224;50.904;6.038;2023-06-14T05:32:42;99685.56;;;18.49;48.53
59419;BME280;45224;50.904;6.038;2023-06-14T05:34:13;99682.13;;;18.47;48.25
59419;BME280;45224;50.904;6.038;2023-06-14T05:35:43;99683.22;;;18.41;48.16
59419;BME280;45224;50.904;6.038;2023-06-14T05:37:13;99685.69;;;18.44;48.57
59419;BME280;45224;50.904;6.038;2023-06-14T05:38:44;99680.41;;;18.46;48.84
59419;BME280;45224;50.904;6.038;2023-06-14T05:40:15;99691.72;;;18.48;48.42
59419;BME280;45224;50.904;6.038;2023-06-14T05:41:47;99693.41;;;18.49;48.71
59419;BME280;45224;50.904;6.038;2023-06-14T05:43:17;99692.81;;;18.40;48.87
59419;BME280;45224;50.904;6.038;2023-06-14T05:44:47;99696.47;;;18.36;49.09
59419;BME280;45224;50.904;6.038;2023-06-14T05:46:18;99699.38;;;18.27;48.63
59419;BME280;45224;50.904;6.038;2023-06-14T05:47:54;99701.94;;;18.29;48.70
59419;BME280;45224;50.904;6.038;2023-06-14T05:49:24;99703.28;;;18.40;48.82
59419;BME280;45224;50.904;6.038;2023-06-14T05:50:55;99705.50;;;18.53;48.95
59419;BME280;45224;50.904;6.038;2023-06-14T05:52:25;99702.56;;;18.62;48.67
59419;BME280;45224;50.904;6.038;2023-06-14T05:53:56;99710.09;;;18.71;48.36
59419;BME280;45224;50.904;6.038;2023-06-14T05:55:27;99712.50;;;18.77;47.82
59419;BME280;45224;50.904;6.038;2023-06-14T05:56:57;99709.72;;;18.82;47.83
59419;BME280;45224;50.904;6.038;2023-06-14T05:58:31;99708.56;;;18.91;47.40
59419;BME280;45224;50.904;6.038;2023-06-14T06:00:02;99716.16;;;18.98;46.50
59419;BME280;45224;50.904;6.038;2023-06-14T06:01:42;99718.06;;;19.19;46.94
59419;BME280;45224;50.904;6.038;2023-06-14T06:03:13;99722.94;;;19.28;46.84
59419;BME280;45224;50.904;6.038;2023-06-14T06:04:44;99718.06;;;19.19;46.41
59419;BME280;45224;50.904;6.038;2023-06-14T06:06:14;99727.22;;;19.30;45.85
59419;BME280;45224;50.904;6.038;2023-06-14T06:07:45;99724.56;;;19.32;45.94
59419;BME280;45224;50.904;6.038;2023-06-14T06:09:16;99726.34;;;19.31;45.06
59419;BME280;45224;50.904;6.038;2023-06-14T06:10:46;99724.44;;;19.35;45.51
59419;BME280;45224;50.904;6.038;2023-06-14T06:12:17;99725.28;;;19.36;45.25
59419;BME280;45224;50.904;6.038;2023-06-14T06:13:47;99727.97;;;19.34;45.07
59419;BME280;45224;50.904;6.038;2023-06-14T06:15:18;99738.44;;;19.34;44.97
59419;BME280;45224;50.904;6.038;2023-06-14T06:16:48;99738.13;;;19.43;44.31
59419;BME280;45224;50.904;6.038;2023-06-14T06:18:19;99743.47;;;19.40;44.97
59419;BME280;45224;50.904;6.038;2023-06-14T06:19:49;99749.16;;;19.51;44.59
59419;BME280;45224;50.904;6.038;2023-06-14T06:21:20;99740.28;;;19.56;43.91
59419;BME280;45224;50.904;6.038;2023-06-14T06:22:50;99746.22;;;19.61;44.13
59419;BME280;45224;50.904;6.038;2023-06-14T06:24:21;99726.91;;;19.62;43.26
59419;BME280;45224;50.904;6.038;2023-06-14T06:25:51;99742.19;;;19.74;43.68
59419;BME280;45224;50.904;6.038;2023-06-14T06:27:22;99742.41;;;19.68;43.19
59419;BME280;45224;50.904;6.038;2023-06-14T06:28:52;99742.00;;;19.80;43.93
59419;BME280;45224;50.904;6.038;2023-06-14T06:30:22;99744.50;;;19.83;43.78
59419;BME280;45224;50.904;6.038;2023-06-14T06:31:53;99741.88;;;19.83;43.98
59419;BME280;45224;50.904;6.038;2023-06-14T06:33:23;99742.25;;;19.73;43.90
59419;BME280;45224;50.904;6.038;2023-06-14T06:34:54;99753.53;;;19.75;43.32
59419;BME280;45224;50.904;6.038;2023-06-14T06:36:24;99749.50;;;19.66;44.07
59419;BME280;45224;50.904;6.038;2023-06-14T06:37:55;99745.28;;;19.85;43.84
59419;BME280;45224;50.904;6.038;2023-06-14T06:39:25;99741.88;;;19.83;43.67
59419;BME280;45224;50.904;6.038;2023-06-14T06:40:56;99752.06;;;19.91;43.73
59419;BME280;45224;50.904;6.038;2023-06-14T06:42:27;99751.16;;;20.14;43.63
59419;BME280;45224;50.904;6.038;2023-06-14T06:43:57;99754.50;;;20.18;43.36
59419;BME280;45224;50.904;6.038;2023-06-14T06:45:32;99751.16;;;20.36;43.51
59419;BME280;45224;50.904;6.038;2023-06-14T06:47:03;99757.53;;;20.51;43.19
59419;BME280;45224;50.904;6.038;2023-06-14T06:48:33;99759.44;;;20.48;42.66
59419;BME280;45224;50.904;6.038;2023-06-14T06:50:04;99759.09;;;20.55;42.92
59419;BME280;45224;50.904;6.038;2023-06-14T06:51:35;99760.63;;;20.61;42.86
59419;BME280;45224;50.904;6.038;2023-06-14T06:53:07;99759.16;;;20.76;42.71
59419;BME280;45224;50.904;6.038;2023-06-14T06:54:37;99754.28;;;20.87;42.30
59419;BME280;45224;50.904;6.038;2023-06-14T06:56:07;99760.50;;;21.05;42.61
59419;BME280;45224;50.904;6.038;2023-06-14T06:57:38;99762.09;;;21.09;42.05
59419;BME280;45224;50.904;6.038;2023-06-14T06:59:08;99764.66;;;21.11;41.33
59419;BME280;45224;50.904;6.038;2023-06-14T07:00:39;99765.31;;;20.95;41.12
59419;BME280;45224;50.904;6.038;2023-06-14T07:02:09;99769.47;;;20.81;41.25
59419;BME280;45224;50.904;6.038;2023-06-14T07:03:40;99760.94;;;20.75;41.45
59419;BME280;45224;50.904;6.038;2023-06-14T07:05:10;99763.50;;;20.77;41.57
59419;BME280;45224;50.904;6.038;2023-06-14T07:06:41;99775.81;;;20.75;41.72
59419;BME280;45224;50.904;6.038;2023-06-14T07:08:11;99772.41;;;20.93;41.19
59419;BME280;45224;50.904;6.038;2023-06-14T07:09:42;99781.66;;;21.02;40.65
59419;BME280;45224;50.904;6.038;2023-06-14T07:11:13;99774.66;;;20.82;40.00
59419;BME280;45224;50.904;6.038;2023-06-14T07:12:43;99788.03;;;20.76;40.25
59419;BME280;45224;50.904;6.038;2023-06-14T07:14:13;99786.72;;;20.86;40.10
59419;BME280;45224;50.904;6.038;2023-06-14T07:15:44;99793.44;;;20.73;40.66
59419;BME280;45224;50.904;6.038;2023-06-14T07:17:14;99793.06;;;21.03;40.76
59419;BME280;45224;50.904;6.038;2023-06-14T07:18:44;99791.22;;;21.05;40.76
59419;BME280;45224;50.904;6.038;2023-06-14T07:20:15;99793.72;;;21.08;40.26
59419;BME280;45224;50.904;6.038;2023-06-14T07:21:46;99794.09;;;21.19;41.06
59419;BME280;45224;50.904;6.038;2023-06-14T07:23:17;99789.16;;;21.32;39.80
59419;BME280;45224;50.904;6.038;2023-06-14T07:24:47;99792.22;;;21.62;39.70
59419;BME280;45224;50.904;6.038;2023-06-14T07:26:18;99790.28;;;21.45;38.88
59419;BME280;45224;50.904;6.038;2023-06-14T07:27:48;99795.25;;;21.32;38.99
59419;BME280;45224;50.904;6.038;2023-06-14T07:29:18;99802.50;;;21.27;38.98
59419;BME280;45224;50.904;6.038;2023-06-14T07:30:49;99797.25;;;21.27;39.13
59419;BME280;45224;50.904;6.038;2023-06-14T07:32:21;99789.59;;;21.42;38.65
59419;BME280;45224;50.904;6.038;2023-06-14T07:33:51;99792.34;;;21.59;38.77
59419;BME280;45224;50.904;6.038;2023-06-14T07:35:22;99798.47;;;21.79;38.94
59419;BME280;45224;50.904;6.038;2023-06-14T07:36:52;99795.44;;;21.86;38.32
59419;BME280;45224;50.904;6.038;2023-06-14T07:38:24;99798.88;;;22.08;37.83
59419;BME280;45224;50.904;6.038;2023-06-14T07:39:54;99799.06;;;22.22;37.77
59419;BME280;45224;50.904;6.038;2023-06-14T07:41:25;99799.38;;;22.16;37.29
59419;BME280;45224;50.904;6.038;2023-06-14T07:42:55;99795.56;;;22.21;37.70
59419;BME280;45224;50.904;6.038;2023-06-14T07:44:29;99797.63;;;22.53;37.44
59419;BME280;45224;50.904;6.038;2023-06-14T07:46:00;99798.78;;;22.65;37.59
59419;BME280;45224;50.904;6.038;2023-06-14T07:47:31;99798.22;;;22.40;37.22
59419;BME280;45224;50.904;6.038;2023-06-14T07:49:01;99801.38;;;22.47;36.78
59419;BME280;45224;50.904;6.038;2023-06-14T07:50:32;99803.34;;;22.61;36.25
59419;BME280;45224;50.904;6.038;2023-06-14T07:52:02;99803.91;;;22.68;35.92
59419;BME280;45224;50.904;6.038;2023-06-14T07:53:33;99799.06;;;22.58;36.04
59419;BME280;45224;50.904;6.038;2023-06-14T07:55:04;99807.31;;;22.70;36.04
59419;BME280;45224;50.904;6.038;2023-06-14T07:56:34;99801.66;;;22.95;36.34
59419;BME280;45224;50.904;6.038;2023-06-14T07:58:05;99811.72;;;22.69;35.87
59419;BME280;45224;50.904;6.038;2023-06-14T07:59:36;99800.41;;;22.85;35.64
59419;BME280;45224;50.904;6.038;2023-06-14T08:01:06;99800.25;;;22.53;36.11
59419;BME280;45224;50.904;6.038;2023-06-14T08:02:38;99801.03;;;22.72;36.37
59419;BME280;45224;50.904;6.038;2023-06-14T08:04:08;99800.50;;;22.66;36.34
59419;BME280;45224;50.904;6.038;2023-06-14T08:05:38;99806.00;;;22.61;36.01